Independence, Missouri
Current Conditions -  °F | °C
As of 11:53 PM on Thursday 27 Nov 2014 (Local Time) from KLXT Reporting Station
Clear Clear  
Wind Chill: 23°   Ceiling: Unl
Heat Index: 30°   Visibility: 10mi
Dew Point: 22°   Wind: 7mph
Humidity: 72%   Direction: 160°SSE
Pressure: 30.25"   Gusts: NA
Location:  39.09°N, 94.41°W
Report Text: KLXT 280553Z AUTO 16006KT 10SM CLR M01/M06 A3025 RMK AO2 SLP254 T10111056 10017 21011 400331033 58024 TSNO
Loading
Personal Weather Stations






























Interactive Weather Map New forecast layout! Learn more

10-Day Weather Forecast

Advertisements
Track Severe Weather on mobile